sensor_id;sensor_type;location;lat;lon;timestamp;P1;durP1;ratioP1;P2;durP2;ratioP2
61525;SDS011;47394;41.366;-8.738;2022-09-20T00:00:47;39.97;;;28.30;;
61525;SDS011;47394;41.366;-8.738;2022-09-20T00:02:48;71.95;;;51.83;;
61525;SDS011;47394;41.366;-8.738;2022-09-20T00:04:49;53.47;;;38.63;;
61525;SDS011;47394;41.366;-8.738;2022-09-20T00:06:49;46.13;;;32.60;;
61525;SDS011;47394;41.366;-8.738;2022-09-20T00:08:50;121.72;;;85.63;;
61525;SDS011;47394;41.366;-8.738;2022-09-20T00:10:56;117.00;;;87.18;;
61525;SDS011;47394;41.366;-8.738;2022-09-20T00:13:01;100.28;;;79.03;;
61525;SDS011;47394;41.366;-8.738;2022-09-20T00:15:03;130.57;;;97.13;;
61525;SDS011;47394;41.366;-8.738;2022-09-20T00:17:04;117.80;;;88.43;;
61525;SDS011;47394;41.366;-8.738;2022-09-20T00:19:05;116.25;;;89.20;;
61525;SDS011;47394;41.366;-8.738;2022-09-20T00:21:10;124.10;;;95.75;;
61525;SDS011;47394;41.366;-8.738;2022-09-20T00:23:16;151.38;;;114.13;;
61525;SDS011;47394;41.366;-8.738;2022-09-20T00:25:18;158.00;;;114.00;;
61525;SDS011;47394;41.366;-8.738;2022-09-20T00:27:19;141.37;;;110.57;;
61525;SDS011;47394;41.366;-8.738;2022-09-20T00:29:20;154.40;;;110.28;;
61525;SDS011;47394;41.366;-8.738;2022-09-20T00:31:21;123.63;;;97.55;;
61525;SDS011;47394;41.366;-8.738;2022-09-20T00:33:22;108.18;;;84.20;;
61525;SDS011;47394;41.366;-8.738;2022-09-20T00:35:44;116.45;;;78.57;;
61525;SDS011;47394;41.366;-8.738;2022-09-20T00:37:45;96.32;;;67.85;;
61525;SDS011;47394;41.366;-8.738;2022-09-20T00:39:46;83.70;;;58.55;;
61525;SDS011;47394;41.366;-8.738;2022-09-20T00:41:46;65.65;;;50.22;;
61525;SDS011;47394;41.366;-8.738;2022-09-20T00:43:47;57.38;;;45.13;;
61525;SDS011;47394;41.366;-8.738;2022-09-20T00:45:48;46.33;;;35.33;;
61525;SDS011;47394;41.366;-8.738;2022-09-20T00:48:00;42.25;;;30.15;;
61525;SDS011;47394;41.366;-8.738;2022-09-20T00:52:45;37.97;;;27.25;;
61525;SDS011;47394;41.366;-8.738;2022-09-20T00:54:50;50.45;;;30.20;;
61525;SDS011;47394;41.366;-8.738;2022-09-20T00:56:52;39.67;;;27.92;;
61525;SDS011;47394;41.366;-8.738;2022-09-20T00:59:36;47.28;;;28.80;;
61525;SDS011;47394;41.366;-8.738;2022-09-20T01:01:33;43.70;;;28.73;;
61525;SDS011;47394;41.366;-8.738;2022-09-20T01:03:35;43.70;;;27.65;;
61525;SDS011;47394;41.366;-8.738;2022-09-20T01:05:38;49.33;;;27.27;;
61525;SDS011;47394;41.366;-8.738;2022-09-20T01:07:40;46.55;;;29.13;;
61525;SDS011;47394;41.366;-8.738;2022-09-20T01:09:43;40.47;;;27.45;;
61525;SDS011;47394;41.366;-8.738;2022-09-20T01:11:44;43.05;;;29.63;;
61525;SDS011;47394;41.366;-8.738;2022-09-20T01:13:46;44.58;;;31.55;;
61525;SDS011;47394;41.366;-8.738;2022-09-20T01:15:46;42.72;;;31.73;;
61525;SDS011;47394;41.366;-8.738;2022-09-20T01:17:49;53.60;;;30.70;;
61525;SDS011;47394;41.366;-8.738;2022-09-20T01:22:22;51.33;;;29.67;;
61525;SDS011;47394;41.366;-8.738;2022-09-20T01:24:51;39.90;;;28.60;;
61525;SDS011;47394;41.366;-8.738;2022-09-20T01:32:00;39.60;;;27.98;;
61525;SDS011;47394;41.366;-8.738;2022-09-20T01:34:09;46.42;;;28.88;;
61525;SDS011;47394;41.366;-8.738;2022-09-20T01:36:13;51.58;;;29.10;;
61525;SDS011;47394;41.366;-8.738;2022-09-20T01:44:00;46.55;;;28.52;;
61525;SDS011;47394;41.366;-8.738;2022-09-20T01:45:47;48.33;;;28.80;;
61525;SDS011;47394;41.366;-8.738;2022-09-20T01:48:02;43.97;;;28.48;;
61525;SDS011;47394;41.366;-8.738;2022-09-20T02:11:28;48.35;;;27.85;;
61525;SDS011;47394;41.366;-8.738;2022-09-20T02:14:06;40.88;;;28.58;;
61525;SDS011;47394;41.366;-8.738;2022-09-20T02:16:21;45.58;;;30.67;;
61525;SDS011;47394;41.366;-8.738;2022-09-20T02:31:20;45.92;;;28.17;;
61525;SDS011;47394;41.366;-8.738;2022-09-20T02:33:45;40.72;;;25.98;;
61525;SDS011;47394;41.366;-8.738;2022-09-20T02:36:19;45.63;;;27.00;;
61525;SDS011;47394;41.366;-8.738;2022-09-20T02:38:53;47.28;;;27.73;;
61525;SDS011;47394;41.366;-8.738;2022-09-20T02:43:25;42.97;;;26.65;;
61525;SDS011;47394;41.366;-8.738;2022-09-20T02:45:37;43.60;;;26.65;;
61525;SDS011;47394;41.366;-8.738;2022-09-20T02:47:43;43.08;;;27.25;;
61525;SDS011;47394;41.366;-8.738;2022-09-20T02:52:16;43.45;;;26.65;;
61525;SDS011;47394;41.366;-8.738;2022-09-20T02:54:32;39.65;;;27.63;;
61525;SDS011;47394;41.366;-8.738;2022-09-20T02:56:46;39.20;;;27.00;;
61525;SDS011;47394;41.366;-8.738;2022-09-20T03:01:06;40.28;;;25.52;;
61525;SDS011;47394;41.366;-8.738;2022-09-20T03:03:14;39.30;;;26.77;;
61525;SDS011;47394;41.366;-8.738;2022-09-20T03:05:24;44.63;;;25.27;;
61525;SDS011;47394;41.366;-8.738;2022-09-20T03:12:48;41.60;;;26.83;;
61525;SDS011;47394;41.366;-8.738;2022-09-20T03:14:57;36.42;;;24.27;;
61525;SDS011;47394;41.366;-8.738;2022-09-20T03:17:21;37.22;;;24.83;;
61525;SDS011;47394;41.366;-8.738;2022-09-20T03:29:22;48.70;;;27.45;;
61525;SDS011;47394;41.366;-8.738;2022-09-20T03:42:45;44.78;;;25.17;;
61525;SDS011;47394;41.366;-8.738;2022-09-20T03:47:27;39.67;;;25.83;;
61525;SDS011;47394;41.366;-8.738;2022-09-20T04:07:09;35.47;;;22.20;;
61525;SDS011;47394;41.366;-8.738;2022-09-20T04:11:42;34.67;;;22.08;;
61525;SDS011;47394;41.366;-8.738;2022-09-20T04:20:59;47.55;;;25.10;;
61525;SDS011;47394;41.366;-8.738;2022-09-20T04:23:11;36.92;;;25.33;;
61525;SDS011;47394;41.366;-8.738;2022-09-20T04:25:29;45.72;;;26.45;;
61525;SDS011;47394;41.366;-8.738;2022-09-20T04:27:41;34.53;;;24.05;;
61525;SDS011;47394;41.366;-8.738;2022-09-20T04:29:51;36.17;;;25.05;;
61525;SDS011;47394;41.366;-8.738;2022-09-20T04:31:58;42.58;;;25.60;;
61525;SDS011;47394;41.366;-8.738;2022-09-20T04:34:03;34.72;;;25.15;;
61525;SDS011;47394;41.366;-8.738;2022-09-20T04:38:29;35.00;;;24.20;;
61525;SDS011;47394;41.366;-8.738;2022-09-20T04:45:19;35.22;;;25.42;;
61525;SDS011;47394;41.366;-8.738;2022-09-20T04:57:28;36.40;;;25.35;;
61525;SDS011;47394;41.366;-8.738;2022-09-20T04:59:51;38.58;;;24.58;;
61525;SDS011;47394;41.366;-8.738;2022-09-20T05:11:39;45.97;;;27.45;;
61525;SDS011;47394;41.366;-8.738;2022-09-20T05:28:01;42.40;;;27.42;;
61525;SDS011;47394;41.366;-8.738;2022-09-20T05:30:41;44.63;;;26.77;;
61525;SDS011;47394;41.366;-8.738;2022-09-20T05:32:44;52.47;;;27.80;;
61525;SDS011;47394;41.366;-8.738;2022-09-20T05:35:05;44.13;;;25.63;;
61525;SDS011;47394;41.366;-8.738;2022-09-20T05:48:58;50.95;;;26.52;;
61525;SDS011;47394;41.366;-8.738;2022-09-20T06:01:41;36.63;;;24.85;;
61525;SDS011;47394;41.366;-8.738;2022-09-20T06:04:05;37.50;;;27.67;;
61525;SDS011;47394;41.366;-8.738;2022-09-20T06:17:44;35.75;;;22.05;;
61525;SDS011;47394;41.366;-8.738;2022-09-20T06:20:05;30.58;;;22.83;;
61525;SDS011;47394;41.366;-8.738;2022-09-20T06:26:45;35.72;;;26.88;;
61525;SDS011;47394;41.366;-8.738;2022-09-20T06:28:50;43.30;;;27.00;;
61525;SDS011;47394;41.366;-8.738;2022-09-20T06:30:55;42.05;;;27.67;;
61525;SDS011;47394;41.366;-8.738;2022-09-20T06:35:09;45.53;;;24.67;;
61525;SDS011;47394;41.366;-8.738;2022-09-20T06:42:03;43.15;;;25.85;;
61525;SDS011;47394;41.366;-8.738;2022-09-20T06:44:05;36.38;;;27.08;;
61525;SDS011;47394;41.366;-8.738;2022-09-20T06:46:06;52.92;;;28.67;;
61525;SDS011;47394;41.366;-8.738;2022-09-20T06:48:07;46.35;;;29.20;;
61525;SDS011;47394;41.366;-8.738;2022-09-20T06:50:15;46.28;;;27.85;;
61525;SDS011;47394;41.366;-8.738;2022-09-20T06:52:17;35.95;;;26.80;;
61525;SDS011;47394;41.366;-8.738;2022-09-20T06:54:20;42.08;;;26.27;;
61525;SDS011;47394;41.366;-8.738;2022-09-20T06:56:22;35.72;;;27.35;;
61525;SDS011;47394;41.366;-8.738;2022-09-20T06:58:26;39.55;;;26.15;;
61525;SDS011;47394;41.366;-8.738;2022-09-20T07:00:27;36.45;;;25.88;;
61525;SDS011;47394;41.366;-8.738;2022-09-20T07:02:28;33.78;;;23.08;;
61525;SDS011;47394;41.366;-8.738;2022-09-20T07:04:28;39.15;;;24.67;;
61525;SDS011;47394;41.366;-8.738;2022-09-20T07:06:30;38.28;;;23.15;;
61525;SDS011;47394;41.366;-8.738;2022-09-20T07:08:31;41.13;;;24.40;;
61525;SDS011;47394;41.366;-8.738;2022-09-20T07:10:32;33.53;;;22.35;;
61525;SDS011;47394;41.366;-8.738;2022-09-20T07:12:33;35.70;;;24.50;;
61525;SDS011;47394;41.366;-8.738;2022-09-20T07:14:34;42.92;;;24.08;;
61525;SDS011;47394;41.366;-8.738;2022-09-20T07:16:35;35.22;;;23.45;;
61525;SDS011;47394;41.366;-8.738;2022-09-20T07:18:36;40.97;;;24.45;;
61525;SDS011;47394;41.366;-8.738;2022-09-20T07:20:37;32.92;;;22.25;;
61525;SDS011;47394;41.366;-8.738;2022-09-20T07:22:38;38.85;;;23.50;;
61525;SDS011;47394;41.366;-8.738;2022-09-20T07:24:38;35.88;;;22.58;;
61525;SDS011;47394;41.366;-8.738;2022-09-20T07:26:39;39.10;;;22.98;;
61525;SDS011;47394;41.366;-8.738;2022-09-20T07:28:55;40.33;;;23.85;;
61525;SDS011;47394;41.366;-8.738;2022-09-20T07:30:56;33.08;;;22.77;;
61525;SDS011;47394;41.366;-8.738;2022-09-20T07:32:57;36.28;;;23.73;;
61525;SDS011;47394;41.366;-8.738;2022-09-20T07:34:59;34.67;;;23.10;;
61525;SDS011;47394;41.366;-8.738;2022-09-20T07:37:01;35.80;;;23.63;;
61525;SDS011;47394;41.366;-8.738;2022-09-20T07:39:02;37.33;;;22.85;;
61525;SDS011;47394;41.366;-8.738;2022-09-20T07:41:03;37.00;;;22.50;;
61525;SDS011;47394;41.366;-8.738;2022-09-20T07:43:04;45.78;;;22.98;;
61525;SDS011;47394;41.366;-8.738;2022-09-20T07:45:05;40.85;;;22.40;;
61525;SDS011;47394;41.366;-8.738;2022-09-20T07:47:07;35.13;;;22.15;;
61525;SDS011;47394;41.366;-8.738;2022-09-20T07:49:09;38.80;;;22.98;;
61525;SDS011;47394;41.366;-8.738;2022-09-20T07:51:11;31.30;;;21.25;;
61525;SDS011;47394;41.366;-8.738;2022-09-20T07:53:12;31.05;;;21.95;;
61525;SDS011;47394;41.366;-8.738;2022-09-20T07:55:13;34.55;;;22.60;;
61525;SDS011;47394;41.366;-8.738;2022-09-20T07:57:14;36.30;;;20.75;;
61525;SDS011;47394;41.366;-8.738;2022-09-20T07:59:16;32.33;;;22.10;;
61525;SDS011;47394;41.366;-8.738;2022-09-20T08:01:16;36.25;;;22.42;;
61525;SDS011;47394;41.366;-8.738;2022-09-20T08:03:19;33.33;;;21.13;;
61525;SDS011;47394;41.366;-8.738;2022-09-20T08:05:19;34.78;;;21.73;;
61525;SDS011;47394;41.366;-8.738;2022-09-20T08:07:20;33.42;;;22.00;;
61525;SDS011;47394;41.366;-8.738;2022-09-20T08:09:20;32.53;;;21.73;;
61525;SDS011;47394;41.366;-8.738;2022-09-20T08:11:22;33.45;;;20.60;;
61525;SDS011;47394;41.366;-8.738;2022-09-20T08:15:24;32.47;;;21.98;;
61525;SDS011;47394;41.366;-8.738;2022-09-20T08:17:25;33.90;;;21.73;;
61525;SDS011;47394;41.366;-8.738;2022-09-20T08:19:26;36.70;;;21.42;;
61525;SDS011;47394;41.366;-8.738;2022-09-20T08:21:30;34.83;;;20.85;;
61525;SDS011;47394;41.366;-8.738;2022-09-20T08:23:35;40.80;;;21.45;;
61525;SDS011;47394;41.366;-8.738;2022-09-20T08:25:37;28.60;;;18.40;;
61525;SDS011;47394;41.366;-8.738;2022-09-20T08:27:38;31.10;;;20.13;;
61525;SDS011;47394;41.366;-8.738;2022-09-20T08:29:39;41.05;;;22.52;;
61525;SDS011;47394;41.366;-8.738;2022-09-20T08:31:40;45.40;;;23.00;;
61525;SDS011;47394;41.366;-8.738;2022-09-20T08:33:41;38.00;;;20.30;;
61525;SDS011;47394;41.366;-8.738;2022-09-20T08:35:42;42.05;;;21.75;;
61525;SDS011;47394;41.366;-8.738;2022-09-20T08:37:43;35.05;;;20.77;;
61525;SDS011;47394;41.366;-8.738;2022-09-20T08:39:44;36.25;;;22.25;;
61525;SDS011;47394;41.366;-8.738;2022-09-20T08:41:47;28.20;;;19.50;;
61525;SDS011;47394;41.366;-8.738;2022-09-20T08:43:54;31.08;;;20.58;;
61525;SDS011;47394;41.366;-8.738;2022-09-20T08:45:57;35.28;;;20.17;;
61525;SDS011;47394;41.366;-8.738;2022-09-20T08:48:01;33.47;;;21.73;;
61525;SDS011;47394;41.366;-8.738;2022-09-20T08:50:05;34.72;;;21.52;;
61525;SDS011;47394;41.366;-8.738;2022-09-20T08:52:07;32.47;;;21.38;;
61525;SDS011;47394;41.366;-8.738;2022-09-20T08:54:19;34.33;;;20.33;;
61525;SDS011;47394;41.366;-8.738;2022-09-20T08:56:24;40.08;;;20.25;;
61525;SDS011;47394;41.366;-8.738;2022-09-20T08:58:28;46.22;;;19.90;;
61525;SDS011;47394;41.366;-8.738;2022-09-20T09:00:33;37.63;;;19.97;;
61525;SDS011;47394;41.366;-8.738;2022-09-20T09:02:35;32.40;;;20.60;;
61525;SDS011;47394;41.366;-8.738;2022-09-20T09:04:36;27.27;;;18.25;;
61525;SDS011;47394;41.366;-8.738;2022-09-20T09:06:37;39.15;;;20.77;;
61525;SDS011;47394;41.366;-8.738;2022-09-20T09:08:39;26.58;;;19.67;;
61525;SDS011;47394;41.366;-8.738;2022-09-20T09:10:43;26.23;;;17.45;;
61525;SDS011;47394;41.366;-8.738;2022-09-20T09:12:47;38.58;;;18.92;;
61525;SDS011;47394;41.366;-8.738;2022-09-20T09:14:49;45.07;;;20.83;;
61525;SDS011;47394;41.366;-8.738;2022-09-20T09:16:54;25.23;;;17.25;;
61525;SDS011;47394;41.366;-8.738;2022-09-20T09:18:55;25.48;;;17.40;;
61525;SDS011;47394;41.366;-8.738;2022-09-20T09:20:56;34.13;;;18.98;;
61525;SDS011;47394;41.366;-8.738;2022-09-20T09:27:33;25.38;;;17.02;;
61525;SDS011;47394;41.366;-8.738;2022-09-20T09:29:34;32.90;;;18.27;;
61525;SDS011;47394;41.366;-8.738;2022-09-20T09:31:35;34.30;;;17.20;;
61525;SDS011;47394;41.366;-8.738;2022-09-20T09:33:42;32.95;;;18.50;;
61525;SDS011;47394;41.366;-8.738;2022-09-20T09:35:50;32.90;;;17.02;;
61525;SDS011;47394;41.366;-8.738;2022-09-20T09:37:57;28.58;;;17.30;;
61525;SDS011;47394;41.366;-8.738;2022-09-20T09:40:16;35.22;;;18.13;;
61525;SDS011;47394;41.366;-8.738;2022-09-20T09:42:18;29.05;;;19.00;;
61525;SDS011;47394;41.366;-8.738;2022-09-20T09:44:24;31.95;;;18.17;;
61525;SDS011;47394;41.366;-8.738;2022-09-20T09:46:30;33.67;;;17.92;;
61525;SDS011;47394;41.366;-8.738;2022-09-20T09:48:33;28.10;;;15.50;;
61525;SDS011;47394;41.366;-8.738;2022-09-20T09:50:33;19.35;;;14.85;;
61525;SDS011;47394;41.366;-8.738;2022-09-20T09:52:34;35.85;;;15.88;;
61525;SDS011;47394;41.366;-8.738;2022-09-20T09:54:39;29.30;;;17.00;;
61525;SDS011;47394;41.366;-8.738;2022-09-20T09:56:52;29.85;;;18.00;;
61525;SDS011;47394;41.366;-8.738;2022-09-20T09:59:21;37.85;;;18.00;;
61525;SDS011;47394;41.366;-8.738;2022-09-20T10:06:22;25.08;;;17.10;;
61525;SDS011;47394;41.366;-8.738;2022-09-20T10:15:38;29.30;;;17.00;;
61525;SDS011;47394;41.366;-8.738;2022-09-20T10:20:12;46.08;;;19.02;;
61525;SDS011;47394;41.366;-8.738;2022-09-20T10:30:02;26.83;;;15.38;;
61525;SDS011;47394;41.366;-8.738;2022-09-20T10:39:38;29.15;;;19.13;;
61525;SDS011;47394;41.366;-8.738;2022-09-20T10:46:39;38.50;;;16.27;;
61525;SDS011;47394;41.366;-8.738;2022-09-20T10:48:53;35.85;;;17.05;;
61525;SDS011;47394;41.366;-8.738;2022-09-20T10:56:15;33.30;;;15.05;;
61525;SDS011;47394;41.366;-8.738;2022-09-20T10:58:38;30.17;;;16.00;;
61525;SDS011;47394;41.366;-8.738;2022-09-20T11:08:10;28.58;;;13.45;;
61525;SDS011;47394;41.366;-8.738;2022-09-20T11:10:20;22.13;;;13.20;;
61525;SDS011;47394;41.366;-8.738;2022-09-20T11:12:45;25.23;;;11.93;;
61525;SDS011;47394;41.366;-8.738;2022-09-20T11:16:58;21.00;;;11.63;;
61525;SDS011;47394;41.366;-8.738;2022-09-20T11:24:35;19.63;;;10.98;;
61525;SDS011;47394;41.366;-8.738;2022-09-20T11:26:46;21.90;;;9.82;;
61525;SDS011;47394;41.366;-8.738;2022-09-20T11:28:52;16.13;;;10.15;;
61525;SDS011;47394;41.366;-8.738;2022-09-20T11:31:04;19.70;;;9.15;;
61525;SDS011;47394;41.366;-8.738;2022-09-20T11:33:15;16.10;;;9.20;;
61525;SDS011;47394;41.366;-8.738;2022-09-20T11:35:33;21.58;;;8.65;;
61525;SDS011;47394;41.366;-8.738;2022-09-20T11:37:39;12.80;;;7.60;;
61525;SDS011;47394;41.366;-8.738;2022-09-20T11:41:59;16.42;;;7.97;;
61525;SDS011;47394;41.366;-8.738;2022-09-20T11:44:06;13.40;;;7.65;;
61525;SDS011;47394;41.366;-8.738;2022-09-20T11:46:12;17.55;;;7.97;;
61525;SDS011;47394;41.366;-8.738;2022-09-20T11:48:30;13.68;;;8.35;;
61525;SDS011;47394;41.366;-8.738;2022-09-20T11:53:01;19.42;;;9.05;;
61525;SDS011;47394;41.366;-8.738;2022-09-20T11:57:37;17.80;;;8.77;;
61525;SDS011;47394;41.366;-8.738;2022-09-20T11:59:39;24.80;;;9.90;;
61525;SDS011;47394;41.366;-8.738;2022-09-20T12:01:41;15.50;;;9.15;;
61525;SDS011;47394;41.366;-8.738;2022-09-20T12:03:43;21.15;;;10.15;;
61525;SDS011;47394;41.366;-8.738;2022-09-20T12:06:00;27.08;;;10.23;;
61525;SDS011;47394;41.366;-8.738;2022-09-20T12:08:03;19.50;;;10.52;;
61525;SDS011;47394;41.366;-8.738;2022-09-20T12:14:36;23.23;;;10.68;;
61525;SDS011;47394;41.366;-8.738;2022-09-20T12:16:41;19.58;;;11.52;;
61525;SDS011;47394;41.366;-8.738;2022-09-20T12:23:41;21.10;;;9.95;;
61525;SDS011;47394;41.366;-8.738;2022-09-20T12:25:35;15.57;;;9.23;;
61525;SDS011;47394;41.366;-8.738;2022-09-20T12:31:47;21.45;;;9.15;;
61525;SDS011;47394;41.366;-8.738;2022-09-20T12:34:00;18.65;;;9.48;;
61525;SDS011;47394;41.366;-8.738;2022-09-20T12:36:13;19.80;;;8.63;;
61525;SDS011;47394;41.366;-8.738;2022-09-20T12:38:22;22.75;;;9.63;;
61525;SDS011;47394;41.366;-8.738;2022-09-20T12:40:30;17.63;;;9.95;;
61525;SDS011;47394;41.366;-8.738;2022-09-20T12:42:31;16.35;;;10.20;;
61525;SDS011;47394;41.366;-8.738;2022-09-20T12:46:56;19.83;;;8.68;;
61525;SDS011;47394;41.366;-8.738;2022-09-20T12:51:36;19.00;;;8.45;;
61525;SDS011;47394;41.366;-8.738;2022-09-20T12:53:59;13.80;;;8.27;;
61525;SDS011;47394;41.366;-8.738;2022-09-20T12:56:22;21.23;;;8.85;;
61525;SDS011;47394;41.366;-8.738;2022-09-20T12:58:30;21.52;;;8.18;;
61525;SDS011;47394;41.366;-8.738;2022-09-20T13:00:40;19.42;;;8.15;;
61525;SDS011;47394;41.366;-8.738;2022-09-20T13:04:52;16.40;;;7.80;;
61525;SDS011;47394;41.366;-8.738;2022-09-20T13:07:21;19.52;;;7.47;;
61525;SDS011;47394;41.366;-8.738;2022-09-20T13:09:33;17.92;;;7.03;;
61525;SDS011;47394;41.366;-8.738;2022-09-20T13:14:01;15.23;;;7.18;;
61525;SDS011;47394;41.366;-8.738;2022-09-20T13:16:03;18.05;;;7.53;;
61525;SDS011;47394;41.366;-8.738;2022-09-20T13:18:06;14.77;;;7.70;;
61525;SDS011;47394;41.366;-8.738;2022-09-20T13:20:23;15.52;;;7.93;;
61525;SDS011;47394;41.366;-8.738;2022-09-20T13:24:32;16.05;;;7.50;;
61525;SDS011;47394;41.366;-8.738;2022-09-20T13:26:39;16.70;;;7.95;;
61525;SDS011;47394;41.366;-8.738;2022-09-20T13:28:48;15.10;;;7.88;;
61525;SDS011;47394;41.366;-8.738;2022-09-20T13:31:14;16.13;;;8.45;;
61525;SDS011;47394;41.366;-8.738;2022-09-20T13:33:22;13.95;;;7.75;;
61525;SDS011;47394;41.366;-8.738;2022-09-20T13:35:26;15.90;;;8.38;;
61525;SDS011;47394;41.366;-8.738;2022-09-20T13:37:31;13.75;;;7.80;;
61525;SDS011;47394;41.366;-8.738;2022-09-20T13:39:34;12.63;;;7.70;;
61525;SDS011;47394;41.366;-8.738;2022-09-20T13:41:36;13.85;;;7.40;;
61525;SDS011;47394;41.366;-8.738;2022-09-20T13:43:41;11.38;;;7.07;;
61525;SDS011;47394;41.366;-8.738;2022-09-20T13:45:44;11.23;;;7.00;;
61525;SDS011;47394;41.366;-8.738;2022-09-20T13:47:48;15.25;;;8.27;;
61525;SDS011;47394;41.366;-8.738;2022-09-20T13:49:50;17.13;;;7.57;;
61525;SDS011;47394;41.366;-8.738;2022-09-20T13:51:51;10.85;;;7.80;;
61525;SDS011;47394;41.366;-8.738;2022-09-20T13:53:52;15.05;;;8.48;;
61525;SDS011;47394;41.366;-8.738;2022-09-20T13:55:53;16.15;;;8.05;;
61525;SDS011;47394;41.366;-8.738;2022-09-20T13:57:55;11.27;;;7.07;;
61525;SDS011;47394;41.366;-8.738;2022-09-20T13:59:59;15.85;;;9.05;;
61525;SDS011;47394;41.366;-8.738;2022-09-20T14:02:00;17.48;;;8.45;;
61525;SDS011;47394;41.366;-8.738;2022-09-20T14:04:04;15.07;;;10.13;;
61525;SDS011;47394;41.366;-8.738;2022-09-20T14:06:09;18.13;;;9.77;;
61525;SDS011;47394;41.366;-8.738;2022-09-20T14:08:16;13.27;;;9.70;;
61525;SDS011;47394;41.366;-8.738;2022-09-20T14:10:26;16.92;;;10.30;;
61525;SDS011;47394;41.366;-8.738;2022-09-20T14:12:36;19.35;;;10.68;;
61525;SDS011;47394;41.366;-8.738;2022-09-20T14:14:37;18.20;;;10.32;;
61525;SDS011;47394;41.366;-8.738;2022-09-20T14:16:40;20.60;;;10.55;;
61525;SDS011;47394;41.366;-8.738;2022-09-20T14:18:46;20.48;;;9.07;;
61525;SDS011;47394;41.366;-8.738;2022-09-20T14:20:48;16.60;;;9.73;;
61525;SDS011;47394;41.366;-8.738;2022-09-20T14:22:49;18.63;;;9.43;;
61525;SDS011;47394;41.366;-8.738;2022-09-20T14:24:55;14.05;;;9.00;;
61525;SDS011;47394;41.366;-8.738;2022-09-20T14:29:27;16.95;;;9.45;;
61525;SDS011;47394;41.366;-8.738;2022-09-20T14:31:33;13.82;;;8.70;;
61525;SDS011;47394;41.366;-8.738;2022-09-20T14:33:38;13.80;;;9.03;;
61525;SDS011;47394;41.366;-8.738;2022-09-20T14:35:45;13.38;;;9.27;;
61525;SDS011;47394;41.366;-8.738;2022-09-20T14:37:49;12.98;;;9.45;;
61525;SDS011;47394;41.366;-8.738;2022-09-20T14:39:56;14.93;;;9.90;;
61525;SDS011;47394;41.366;-8.738;2022-09-20T14:41:59;23.77;;;10.20;;
61525;SDS011;47394;41.366;-8.738;2022-09-20T14:44:00;28.88;;;11.57;;
61525;SDS011;47394;41.366;-8.738;2022-09-20T14:46:12;17.88;;;11.60;;
61525;SDS011;47394;41.366;-8.738;2022-09-20T14:54:29;21.77;;;11.88;;
61525;SDS011;47394;41.366;-8.738;2022-09-20T14:56:32;17.80;;;12.30;;
61525;SDS011;47394;41.366;-8.738;2022-09-20T15:01:23;17.67;;;11.68;;
61525;SDS011;47394;41.366;-8.738;2022-09-20T15:03:26;21.38;;;12.73;;
61525;SDS011;47394;41.366;-8.738;2022-09-20T15:05:30;27.38;;;14.40;;
61525;SDS011;47394;41.366;-8.738;2022-09-20T15:07:30;23.75;;;15.77;;
61525;SDS011;47394;41.366;-8.738;2022-09-20T15:09:32;22.48;;;12.15;;
61525;SDS011;47394;41.366;-8.738;2022-09-20T15:11:34;15.40;;;11.68;;
61525;SDS011;47394;41.366;-8.738;2022-09-20T15:13:35;16.05;;;9.65;;
61525;SDS011;47394;41.366;-8.738;2022-09-20T15:15:36;13.85;;;8.88;;
61525;SDS011;47394;41.366;-8.738;2022-09-20T15:17:36;18.30;;;10.77;;
61525;SDS011;47394;41.366;-8.738;2022-09-20T15:19:37;30.05;;;11.38;;
61525;SDS011;47394;41.366;-8.738;2022-09-20T15:21:38;15.00;;;10.57;;
61525;SDS011;47394;41.366;-8.738;2022-09-20T15:23:39;16.05;;;9.38;;
61525;SDS011;47394;41.366;-8.738;2022-09-20T15:25:40;16.60;;;10.00;;
61525;SDS011;47394;41.366;-8.738;2022-09-20T15:27:41;24.55;;;10.82;;
61525;SDS011;47394;41.366;-8.738;2022-09-20T15:31:45;19.30;;;10.48;;
61525;SDS011;47394;41.366;-8.738;2022-09-20T15:33:47;13.95;;;10.07;;
61525;SDS011;47394;41.366;-8.738;2022-09-20T15:35:47;18.17;;;10.13;;
61525;SDS011;47394;41.366;-8.738;2022-09-20T15:37:48;14.48;;;10.60;;
61525;SDS011;47394;41.366;-8.738;2022-09-20T15:39:49;17.13;;;10.60;;
61525;SDS011;47394;41.366;-8.738;2022-09-20T15:41:51;24.77;;;10.25;;
61525;SDS011;47394;41.366;-8.738;2022-09-20T15:43:52;20.38;;;9.23;;
61525;SDS011;47394;41.366;-8.738;2022-09-20T15:45:54;17.02;;;9.43;;
61525;SDS011;47394;41.366;-8.738;2022-09-20T15:47:56;17.90;;;10.57;;
61525;SDS011;47394;41.366;-8.738;2022-09-20T15:49:57;13.43;;;9.45;;
61525;SDS011;47394;41.366;-8.738;2022-09-20T15:51:58;15.02;;;9.07;;
61525;SDS011;47394;41.366;-8.738;2022-09-20T15:53:59;18.73;;;10.40;;
61525;SDS011;47394;41.366;-8.738;2022-09-20T15:56:03;14.85;;;9.63;;
61525;SDS011;47394;41.366;-8.738;2022-09-20T15:58:13;18.02;;;10.68;;
61525;SDS011;47394;41.366;-8.738;2022-09-20T16:00:14;14.88;;;9.85;;
61525;SDS011;47394;41.366;-8.738;2022-09-20T16:02:18;19.38;;;11.07;;
61525;SDS011;47394;41.366;-8.738;2022-09-20T16:04:20;19.03;;;10.60;;
61525;SDS011;47394;41.366;-8.738;2022-09-20T16:06:21;12.70;;;8.27;;
61525;SDS011;47394;41.366;-8.738;2022-09-20T16:08:23;15.30;;;9.95;;
61525;SDS011;47394;41.366;-8.738;2022-09-20T16:10:24;16.73;;;9.45;;
61525;SDS011;47394;41.366;-8.738;2022-09-20T16:12:24;15.25;;;8.63;;
61525;SDS011;47394;41.366;-8.738;2022-09-20T16:14:25;13.68;;;7.63;;
61525;SDS011;47394;41.366;-8.738;2022-09-20T16:16:27;13.35;;;8.02;;
61525;SDS011;47394;41.366;-8.738;2022-09-20T16:18:29;14.18;;;8.32;;
61525;SDS011;47394;41.366;-8.738;2022-09-20T16:20:48;14.90;;;7.63;;
61525;SDS011;47394;41.366;-8.738;2022-09-20T16:22:49;12.30;;;8.15;;
61525;SDS011;47394;41.366;-8.738;2022-09-20T16:24:49;12.00;;;7.38;;
61525;SDS011;47394;41.366;-8.738;2022-09-20T16:26:50;14.38;;;7.57;;
61525;SDS011;47394;41.366;-8.738;2022-09-20T16:28:51;16.23;;;7.90;;
61525;SDS011;47394;41.366;-8.738;2022-09-20T16:30:57;23.02;;;7.95;;
61525;SDS011;47394;41.366;-8.738;2022-09-20T16:32:58;11.13;;;7.20;;
61525;SDS011;47394;41.366;-8.738;2022-09-20T16:35:04;13.68;;;7.28;;
61525;SDS011;47394;41.366;-8.738;2022-09-20T16:37:10;12.48;;;7.25;;
61525;SDS011;47394;41.366;-8.738;2022-09-20T16:39:16;12.43;;;6.95;;
61525;SDS011;47394;41.366;-8.738;2022-09-20T16:41:17;16.10;;;7.03;;
61525;SDS011;47394;41.366;-8.738;2022-09-20T16:43:18;14.10;;;7.30;;
61525;SDS011;47394;41.366;-8.738;2022-09-20T16:45:23;18.58;;;7.53;;
61525;SDS011;47394;41.366;-8.738;2022-09-20T16:47:26;13.68;;;8.27;;
61525;SDS011;47394;41.366;-8.738;2022-09-20T16:49:27;14.68;;;8.70;;
61525;SDS011;47394;41.366;-8.738;2022-09-20T16:51:29;12.90;;;8.32;;
61525;SDS011;47394;41.366;-8.738;2022-09-20T16:53:32;18.58;;;9.50;;
61525;SDS011;47394;41.366;-8.738;2022-09-20T16:55:33;18.88;;;11.18;;
61525;SDS011;47394;41.366;-8.738;2022-09-20T16:57:33;19.15;;;9.82;;
61525;SDS011;47394;41.366;-8.738;2022-09-20T16:59:35;14.82;;;10.35;;
61525;SDS011;47394;41.366;-8.738;2022-09-20T17:01:37;18.80;;;10.43;;
61525;SDS011;47394;41.366;-8.738;2022-09-20T17:03:39;17.08;;;11.00;;
61525;SDS011;47394;41.366;-8.738;2022-09-20T17:05:40;23.05;;;10.57;;
61525;SDS011;47394;41.366;-8.738;2022-09-20T17:07:41;22.77;;;11.85;;
61525;SDS011;47394;41.366;-8.738;2022-09-20T17:09:43;21.73;;;11.68;;
61525;SDS011;47394;41.366;-8.738;2022-09-20T17:11:45;19.92;;;11.25;;